sensor_id;sensor_type;location;lat;lon;timestamp;pressure;altitude;pressure_sealevel;temperature;humidity
6615;BME280;3343;42.896;23.912;2023-04-08T00:02:15;73863.28;;;-145.80;54.62
6615;BME280;3343;42.896;23.912;2023-04-08T00:04:42;73907.41;;;-145.80;55.49
6615;BME280;3343;42.896;23.912;2023-04-08T00:07:08;73985.66;;;-145.80;57.77
6615;BME280;3343;42.896;23.912;2023-04-08T00:09:35;74067.91;;;-145.80;59.96
6615;BME280;3343;42.896;23.912;2023-04-08T00:12:04;74128.09;;;-145.80;61.54
6615;BME280;3343;42.896;23.912;2023-04-08T00:14:32;74094.00;;;-145.80;60.32
6615;BME280;3343;42.896;23.912;2023-04-08T00:16:59;74029.78;;;-145.80;58.45
6615;BME280;3343;42.896;23.912;2023-04-08T00:19:26;73993.69;;;-145.80;57.91
6615;BME280;3343;42.896;23.912;2023-04-08T00:21:53;74021.78;;;-145.80;57.80
6615;BME280;3343;42.896;23.912;2023-04-08T00:24:20;74071.91;;;-145.80;59.36
6615;BME280;3343;42.896;23.912;2023-04-08T00:26:47;74087.97;;;-145.80;59.55
6615;BME280;3343;42.896;23.912;2023-04-08T00:29:15;74089.97;;;-145.80;59.68
6615;BME280;3343;42.896;23.912;2023-04-08T00:31:42;74150.16;;;-145.80;60.35
6615;BME280;3343;42.896;23.912;2023-04-08T00:34:09;74220.38;;;-145.80;62.21
6615;BME280;3343;42.896;23.912;2023-04-08T00:36:35;74182.25;;;-145.80;61.58
6615;BME280;3343;42.896;23.912;2023-04-08T00:39:04;74190.28;;;-145.80;62.17
6615;BME280;3343;42.896;23.912;2023-04-08T00:41:32;74170.22;;;-145.80;61.60
6615;BME280;3343;42.896;23.912;2023-04-08T00:43:59;74164.22;;;-145.80;61.06
6615;BME280;3343;42.896;23.912;2023-04-08T00:46:28;74192.28;;;-145.80;61.52
6615;BME280;3343;42.896;23.912;2023-04-08T00:48:55;74236.44;;;-145.80;62.65
6615;BME280;3343;42.896;23.912;2023-04-08T00:51:22;74242.44;;;-145.80;62.50
6615;BME280;3343;42.896;23.912;2023-04-08T00:53:49;74218.38;;;-145.80;62.13
6615;BME280;3343;42.896;23.912;2023-04-08T00:56:15;74214.38;;;-145.80;61.83
6615;BME280;3343;42.896;23.912;2023-04-08T00:58:42;74202.31;;;-145.80;61.44
6615;BME280;3343;42.896;23.912;2023-04-08T01:01:11;74170.22;;;-145.80;61.40
6615;BME280;3343;42.896;23.912;2023-04-08T01:03:49;74156.19;;;-145.80;60.91
6615;BME280;3343;42.896;23.912;2023-04-08T01:06:28;74148.16;;;-145.80;60.65
6615;BME280;3343;42.896;23.912;2023-04-08T01:08:57;74162.19;;;-145.80;60.82
6615;BME280;3343;42.896;23.912;2023-04-08T01:11:26;74152.16;;;-145.80;60.59
6615;BME280;3343;42.896;23.912;2023-04-08T01:13:56;74162.19;;;-145.80;61.04
6615;BME280;3343;42.896;23.912;2023-04-08T01:16:24;74160.19;;;-145.80;61.25
6615;BME280;3343;42.896;23.912;2023-04-08T01:18:54;74140.13;;;-145.80;61.13
6615;BME280;3343;42.896;23.912;2023-04-08T01:21:22;74132.09;;;-145.80;61.12
6615;BME280;3343;42.896;23.912;2023-04-08T01:23:58;74081.94;;;-145.80;59.93
6615;BME280;3343;42.896;23.912;2023-04-08T01:26:28;74073.94;;;-145.80;59.64
6615;BME280;3343;42.896;23.912;2023-04-08T01:28:57;74061.91;;;-145.80;59.04
6615;BME280;3343;42.896;23.912;2023-04-08T01:31:25;74049.84;;;-145.80;58.76
6615;BME280;3343;42.896;23.912;2023-04-08T01:33:53;74041.84;;;-145.80;58.49
6615;BME280;3343;42.896;23.912;2023-04-08T01:36:22;74033.81;;;-145.80;57.98
6615;BME280;3343;42.896;23.912;2023-04-08T01:38:50;74031.81;;;-145.80;57.87
6615;BME280;3343;42.896;23.912;2023-04-08T01:41:17;74037.81;;;-145.80;57.82
6615;BME280;3343;42.896;23.912;2023-04-08T01:43:47;74047.84;;;-145.80;58.33
6615;BME280;3343;42.896;23.912;2023-04-08T01:46:16;74128.09;;;-145.80;60.72
6615;BME280;3343;42.896;23.912;2023-04-08T01:48:43;74156.19;;;-145.80;61.67
6615;BME280;3343;42.896;23.912;2023-04-08T01:51:11;74198.31;;;-145.80;62.55
6615;BME280;3343;42.896;23.912;2023-04-08T01:53:39;74204.34;;;-145.80;63.58
6615;BME280;3343;42.896;23.912;2023-04-08T01:56:09;74132.09;;;-145.80;62.45
6615;BME280;3343;42.896;23.912;2023-04-08T01:58:40;74079.94;;;-145.80;61.11
6615;BME280;3343;42.896;23.912;2023-04-08T02:01:12;74051.88;;;-145.80;59.64
6615;BME280;3343;42.896;23.912;2023-04-08T02:03:41;74071.91;;;-145.80;58.83
6615;BME280;3343;42.896;23.912;2023-04-08T02:06:09;74069.91;;;-145.80;58.63
6615;BME280;3343;42.896;23.912;2023-04-08T02:08:36;74045.84;;;-145.80;58.11
6615;BME280;3343;42.896;23.912;2023-04-08T02:11:03;74047.84;;;-145.80;57.42
6615;BME280;3343;42.896;23.912;2023-04-08T02:13:31;74065.91;;;-145.80;57.56
6615;BME280;3343;42.896;23.912;2023-04-08T02:16:03;74045.84;;;-145.80;57.12
6615;BME280;3343;42.896;23.912;2023-04-08T02:18:35;74023.78;;;-145.80;57.14
6615;BME280;3343;42.896;23.912;2023-04-08T02:21:09;74041.84;;;-145.80;57.44
6615;BME280;3343;42.896;23.912;2023-04-08T02:23:38;74091.97;;;-145.80;58.83
6615;BME280;3343;42.896;23.912;2023-04-08T02:26:08;74043.84;;;-145.80;57.63
6615;BME280;3343;42.896;23.912;2023-04-08T02:28:38;74047.84;;;-145.80;57.78
6615;BME280;3343;42.896;23.912;2023-04-08T02:31:08;74035.81;;;-145.80;57.29
6615;BME280;3343;42.896;23.912;2023-04-08T02:33:39;74047.84;;;-145.80;57.60
6615;BME280;3343;42.896;23.912;2023-04-08T02:36:07;74045.84;;;-145.80;57.68
6615;BME280;3343;42.896;23.912;2023-04-08T02:38:35;74051.88;;;-145.80;57.56
6615;BME280;3343;42.896;23.912;2023-04-08T02:41:02;74079.94;;;-145.80;58.43
6615;BME280;3343;42.896;23.912;2023-04-08T02:43:29;74071.91;;;-145.80;58.42
6615;BME280;3343;42.896;23.912;2023-04-08T02:45:58;74071.91;;;-145.80;58.88
6615;BME280;3343;42.896;23.912;2023-04-08T02:48:27;74059.88;;;-145.80;58.70
6615;BME280;3343;42.896;23.912;2023-04-08T02:50:56;74003.72;;;-145.80;57.82
6615;BME280;3343;42.896;23.912;2023-04-08T02:53:23;74017.75;;;-145.80;57.54
6615;BME280;3343;42.896;23.912;2023-04-08T02:55:51;74023.78;;;-145.80;57.77
6615;BME280;3343;42.896;23.912;2023-04-08T02:58:17;74035.81;;;-145.80;57.96
6615;BME280;3343;42.896;23.912;2023-04-08T03:00:44;74033.81;;;-145.80;57.60
6615;BME280;3343;42.896;23.912;2023-04-08T03:03:11;74015.75;;;-145.80;57.44
6615;BME280;3343;42.896;23.912;2023-04-08T03:05:38;74013.75;;;-145.80;57.87
6615;BME280;3343;42.896;23.912;2023-04-08T03:08:06;74011.75;;;-145.80;57.96
6615;BME280;3343;42.896;23.912;2023-04-08T03:10:33;74047.84;;;-145.80;57.64
6615;BME280;3343;42.896;23.912;2023-04-08T03:13:00;74053.88;;;-145.80;58.17
6615;BME280;3343;42.896;23.912;2023-04-08T03:15:27;74059.88;;;-145.80;58.66
6615;BME280;3343;42.896;23.912;2023-04-08T03:17:54;74055.88;;;-145.80;58.95
6615;BME280;3343;42.896;23.912;2023-04-08T03:20:20;74029.78;;;-145.80;58.12
6615;BME280;3343;42.896;23.912;2023-04-08T03:22:47;74015.75;;;-145.80;57.94
6615;BME280;3343;42.896;23.912;2023-04-08T03:25:16;74003.72;;;-145.80;57.82
6615;BME280;3343;42.896;23.912;2023-04-08T03:27:42;74055.88;;;-145.80;59.31
6615;BME280;3343;42.896;23.912;2023-04-08T03:30:09;74057.88;;;-145.80;59.59
6615;BME280;3343;42.896;23.912;2023-04-08T03:32:36;74079.94;;;-145.80;60.06
6615;BME280;3343;42.896;23.912;2023-04-08T03:35:04;74071.91;;;-145.80;60.14
6615;BME280;3343;42.896;23.912;2023-04-08T03:37:31;74069.91;;;-145.80;60.16
6615;BME280;3343;42.896;23.912;2023-04-08T03:39:58;74045.84;;;-145.80;59.26
6615;BME280;3343;42.896;23.912;2023-04-08T03:42:26;74023.78;;;-145.80;58.72
6615;BME280;3343;42.896;23.912;2023-04-08T03:44:53;74067.91;;;-145.80;59.79
6615;BME280;3343;42.896;23.912;2023-04-08T03:47:20;74079.94;;;-145.80;60.28
6615;BME280;3343;42.896;23.912;2023-04-08T03:49:47;74091.97;;;-145.80;60.27
6615;BME280;3343;42.896;23.912;2023-04-08T03:52:14;74087.97;;;-145.80;60.45
6615;BME280;3343;42.896;23.912;2023-04-08T03:54:40;74057.88;;;-145.80;59.96
6615;BME280;3343;42.896;23.912;2023-04-08T03:57:07;74047.84;;;-145.80;59.64
6615;BME280;3343;42.896;23.912;2023-04-08T03:59:37;74094.00;;;-145.80;60.25
6615;BME280;3343;42.896;23.912;2023-04-08T04:02:05;74098.00;;;-145.80;60.71
6615;BME280;3343;42.896;23.912;2023-04-08T04:04:32;74061.91;;;-145.80;59.99
6615;BME280;3343;42.896;23.912;2023-04-08T04:07:01;74039.81;;;-145.80;59.57
6615;BME280;3343;42.896;23.912;2023-04-08T04:09:28;74043.84;;;-145.80;59.43
6615;BME280;3343;42.896;23.912;2023-04-08T04:11:54;74041.84;;;-145.80;59.29
6615;BME280;3343;42.896;23.912;2023-04-08T04:14:21;74023.78;;;-145.80;59.14
6615;BME280;3343;42.896;23.912;2023-04-08T04:16:50;74015.75;;;-145.80;59.00
6615;BME280;3343;42.896;23.912;2023-04-08T04:19:16;74031.81;;;-145.80;59.10
6615;BME280;3343;42.896;23.912;2023-04-08T04:21:43;74023.78;;;-145.80;58.84
6615;BME280;3343;42.896;23.912;2023-04-08T04:24:10;74015.75;;;-145.80;58.85
6615;BME280;3343;42.896;23.912;2023-04-08T04:26:39;74005.72;;;-145.80;58.70
6615;BME280;3343;42.896;23.912;2023-04-08T04:29:06;74003.72;;;-145.80;58.66
6615;BME280;3343;42.896;23.912;2023-04-08T04:31:33;74009.72;;;-145.80;59.03
6615;BME280;3343;42.896;23.912;2023-04-08T04:34:01;73993.69;;;-145.80;58.26
6615;BME280;3343;42.896;23.912;2023-04-08T04:36:28;74027.78;;;-145.80;58.55
6615;BME280;3343;42.896;23.912;2023-04-08T04:38:55;74021.78;;;-145.80;59.11
6615;BME280;3343;42.896;23.912;2023-04-08T04:41:22;74009.72;;;-145.80;58.54
6615;BME280;3343;42.896;23.912;2023-04-08T04:43:50;73995.69;;;-145.80;58.67
6615;BME280;3343;42.896;23.912;2023-04-08T04:46:17;74007.72;;;-145.80;58.85
6615;BME280;3343;42.896;23.912;2023-04-08T04:48:44;74003.72;;;-145.80;58.99
6615;BME280;3343;42.896;23.912;2023-04-08T04:51:12;73987.66;;;-145.80;59.17
6615;BME280;3343;42.896;23.912;2023-04-08T04:53:39;73991.69;;;-145.80;58.71
6615;BME280;3343;42.896;23.912;2023-04-08T04:56:06;73999.69;;;-145.80;58.58
6615;BME280;3343;42.896;23.912;2023-04-08T04:58:32;73995.69;;;-145.80;58.40
6615;BME280;3343;42.896;23.912;2023-04-08T05:00:59;73995.69;;;-145.80;58.51
6615;BME280;3343;42.896;23.912;2023-04-08T05:03:26;73983.66;;;-145.80;58.42
6615;BME280;3343;42.896;23.912;2023-04-08T05:05:53;73983.66;;;-145.80;58.07
6615;BME280;3343;42.896;23.912;2023-04-08T05:08:22;73965.59;;;-145.80;57.89
6615;BME280;3343;42.896;23.912;2023-04-08T05:10:50;73971.63;;;-145.80;57.89
6615;BME280;3343;42.896;23.912;2023-04-08T05:13:17;73953.56;;;-145.80;57.51
6615;BME280;3343;42.896;23.912;2023-04-08T05:15:44;73961.59;;;-145.80;57.33
6615;BME280;3343;42.896;23.912;2023-04-08T05:18:11;73969.59;;;-145.80;57.59
6615;BME280;3343;42.896;23.912;2023-04-08T05:20:38;73959.59;;;-145.80;57.04
6615;BME280;3343;42.896;23.912;2023-04-08T05:23:05;73971.63;;;-145.80;57.11
6615;BME280;3343;42.896;23.912;2023-04-08T05:25:34;73965.59;;;-145.80;57.66
6615;BME280;3343;42.896;23.912;2023-04-08T05:28:01;73971.63;;;-145.80;57.92
6615;BME280;3343;42.896;23.912;2023-04-08T05:30:28;73969.59;;;-145.80;57.81
6615;BME280;3343;42.896;23.912;2023-04-08T05:32:55;73975.63;;;-145.80;57.68
6615;BME280;3343;42.896;23.912;2023-04-08T05:35:22;73971.63;;;-145.80;57.27
6615;BME280;3343;42.896;23.912;2023-04-08T05:37:49;73951.56;;;-145.80;57.25
6615;BME280;3343;42.896;23.912;2023-04-08T05:40:17;73947.53;;;-145.80;56.87
6615;BME280;3343;42.896;23.912;2023-04-08T05:42:45;73941.53;;;-145.80;56.84
6615;BME280;3343;42.896;23.912;2023-04-08T05:45:12;73941.53;;;-145.80;56.91
6615;BME280;3343;42.896;23.912;2023-04-08T05:47:39;73953.56;;;-145.80;57.18
6615;BME280;3343;42.896;23.912;2023-04-08T05:50:07;73947.53;;;-145.80;56.92
6615;BME280;3343;42.896;23.912;2023-04-08T05:52:34;73975.63;;;-145.80;57.54
6615;BME280;3343;42.896;23.912;2023-04-08T05:55:01;73959.59;;;-145.80;57.67
6615;BME280;3343;42.896;23.912;2023-04-08T05:57:27;73955.56;;;-145.80;57.25
6615;BME280;3343;42.896;23.912;2023-04-08T05:59:56;73921.47;;;-145.80;56.37
6615;BME280;3343;42.896;23.912;2023-04-08T06:02:22;73919.47;;;-145.80;56.02
6615;BME280;3343;42.896;23.912;2023-04-08T06:04:49;73929.50;;;-145.80;56.11
6615;BME280;3343;42.896;23.912;2023-04-08T06:07:16;73923.47;;;-145.80;55.47
6615;BME280;3343;42.896;23.912;2023-04-08T06:09:43;73899.41;;;-145.80;54.96
6615;BME280;3343;42.896;23.912;2023-04-08T06:12:10;73855.25;;;-145.80;54.88
6615;BME280;3343;42.896;23.912;2023-04-08T06:14:38;73793.09;;;-145.80;54.43
6615;BME280;3343;42.896;23.912;2023-04-08T06:17:06;73716.84;;;-145.80;51.59
6615;BME280;3343;42.896;23.912;2023-04-08T06:19:33;73708.84;;;-145.80;49.92
6615;BME280;3343;42.896;23.912;2023-04-08T06:22:00;73648.66;;;-145.80;48.53
6615;BME280;3343;42.896;23.912;2023-04-08T06:24:27;73568.41;;;-145.80;48.49
6615;BME280;3343;42.896;23.912;2023-04-08T06:26:55;73506.25;;;-145.80;46.71
6615;BME280;3343;42.896;23.912;2023-04-08T06:29:22;73438.03;;;-145.80;44.14
6615;BME280;3343;42.896;23.912;2023-04-08T06:31:49;73369.84;;;-145.80;42.90
6615;BME280;3343;42.896;23.912;2023-04-08T06:34:17;73327.72;;;-145.80;39.30
6615;BME280;3343;42.896;23.912;2023-04-08T06:36:44;73261.53;;;-145.80;39.17
6615;BME280;3343;42.896;23.912;2023-04-08T06:39:11;73211.41;;;-145.80;36.39
6615;BME280;3343;42.896;23.912;2023-04-08T06:41:39;73229.44;;;-145.80;36.01
6615;BME280;3343;42.896;23.912;2023-04-08T06:44:06;73243.50;;;-145.80;37.05
6615;BME280;3343;42.896;23.912;2023-04-08T06:46:33;73231.47;;;-145.80;36.44
6615;BME280;3343;42.896;23.912;2023-04-08T06:49:00;73245.50;;;-145.80;35.09
6615;BME280;3343;42.896;23.912;2023-04-08T06:51:30;73259.53;;;-145.80;36.42
6615;BME280;3343;42.896;23.912;2023-04-08T06:53:57;73303.66;;;-145.80;35.58
6615;BME280;3343;42.896;23.912;2023-04-08T06:56:24;73313.69;;;-145.80;37.59
6615;BME280;3343;42.896;23.912;2023-04-08T06:58:51;73331.75;;;-145.80;37.62
6615;BME280;3343;42.896;23.912;2023-04-08T07:01:17;73351.78;;;-145.80;37.71
6615;BME280;3343;42.896;23.912;2023-04-08T07:03:44;73321.72;;;-145.80;38.29
6615;BME280;3343;42.896;23.912;2023-04-08T07:06:11;73317.69;;;-145.80;37.73
6615;BME280;3343;42.896;23.912;2023-04-08T07:08:41;73281.59;;;-145.80;40.60
6615;BME280;3343;42.896;23.912;2023-04-08T07:11:07;73311.69;;;-145.80;42.76
6615;BME280;3343;42.896;23.912;2023-04-08T07:13:34;73317.69;;;-145.80;43.13
6615;BME280;3343;42.896;23.912;2023-04-08T07:16:01;73321.72;;;-145.80;43.38
6615;BME280;3343;42.896;23.912;2023-04-08T07:18:28;73355.81;;;-145.80;43.46
6615;BME280;3343;42.896;23.912;2023-04-08T07:20:55;73349.78;;;-145.80;43.16
6615;BME280;3343;42.896;23.912;2023-04-08T07:23:22;73347.78;;;-145.80;43.69
6615;BME280;3343;42.896;23.912;2023-04-08T07:25:51;73315.69;;;-145.80;42.68
6615;BME280;3343;42.896;23.912;2023-04-08T07:28:18;73327.72;;;-145.80;43.04
6615;BME280;3343;42.896;23.912;2023-04-08T07:30:45;73309.69;;;-145.80;42.63
6615;BME280;3343;42.896;23.912;2023-04-08T07:33:12;73297.66;;;-145.80;42.51
6615;BME280;3343;42.896;23.912;2023-04-08T07:35:40;73277.59;;;-145.80;42.03
6615;BME280;3343;42.896;23.912;2023-04-08T07:38:07;73255.53;;;-145.80;41.84
6615;BME280;3343;42.896;23.912;2023-04-08T07:40:36;73245.50;;;-145.80;39.86
6615;BME280;3343;42.896;23.912;2023-04-08T07:43:04;73249.50;;;-145.80;40.57
6615;BME280;3343;42.896;23.912;2023-04-08T07:45:30;73279.59;;;-145.80;40.66
6615;BME280;3343;42.896;23.912;2023-04-08T07:47:57;73273.56;;;-145.80;39.76
6615;BME280;3343;42.896;23.912;2023-04-08T07:50:24;73273.56;;;-145.80;39.97
6615;BME280;3343;42.896;23.912;2023-04-08T07:52:51;73277.59;;;-145.80;40.75
6615;BME280;3343;42.896;23.912;2023-04-08T07:55:18;73273.56;;;-145.80;39.56
6615;BME280;3343;42.896;23.912;2023-04-08T07:57:45;73299.66;;;-145.80;38.61
6615;BME280;3343;42.896;23.912;2023-04-08T08:00:14;73257.53;;;-145.80;38.49
6615;BME280;3343;42.896;23.912;2023-04-08T08:02:46;73249.50;;;-145.80;37.25
6615;BME280;3343;42.896;23.912;2023-04-08T08:05:13;73255.53;;;-145.80;36.89
6615;BME280;3343;42.896;23.912;2023-04-08T08:07:40;73245.50;;;-145.80;37.54
6615;BME280;3343;42.896;23.912;2023-04-08T08:10:08;73223.44;;;-145.80;36.95
6615;BME280;3343;42.896;23.912;2023-04-08T08:12:35;73217.41;;;-145.80;36.66
6615;BME280;3343;42.896;23.912;2023-04-08T08:15:02;73229.44;;;-145.80;35.61
6615;BME280;3343;42.896;23.912;2023-04-08T08:17:30;73227.44;;;-145.80;35.32
6615;BME280;3343;42.896;23.912;2023-04-08T08:19:58;73239.47;;;-145.80;36.39
6615;BME280;3343;42.896;23.912;2023-04-08T08:22:25;73263.53;;;-145.80;36.57
6615;BME280;3343;42.896;23.912;2023-04-08T08:24:55;73219.41;;;-145.80;37.84
6615;BME280;3343;42.896;23.912;2023-04-08T08:27:22;73233.47;;;-145.80;37.40
6615;BME280;3343;42.896;23.912;2023-04-08T08:29:49;73233.47;;;-145.80;37.10
6615;BME280;3343;42.896;23.912;2023-04-08T08:32:15;73223.44;;;-145.80;37.29
6615;BME280;3343;42.896;23.912;2023-04-08T08:34:44;73169.28;;;-145.80;37.47
6615;BME280;3343;42.896;23.912;2023-04-08T08:37:10;73169.28;;;-145.80;36.87
6615;BME280;3343;42.896;23.912;2023-04-08T08:39:37;73165.28;;;-145.80;35.46
6615;BME280;3343;42.896;23.912;2023-04-08T08:42:04;73137.19;;;-145.80;36.78
6615;BME280;3343;42.896;23.912;2023-04-08T08:44:31;73127.16;;;-145.80;35.24
6615;BME280;3343;42.896;23.912;2023-04-08T08:46:59;73083.03;;;-145.80;35.81
6615;BME280;3343;42.896;23.912;2023-04-08T08:49:26;73097.09;;;-145.80;35.21
6615;BME280;3343;42.896;23.912;2023-04-08T08:51:54;73117.13;;;-145.80;33.48
6615;BME280;3343;42.896;23.912;2023-04-08T08:54:21;73071.00;;;-145.80;34.65
6615;BME280;3343;42.896;23.912;2023-04-08T08:56:48;73071.00;;;-145.80;34.04
6615;BME280;3343;42.896;23.912;2023-04-08T08:59:14;73044.94;;;-145.80;34.07
6615;BME280;3343;42.896;23.912;2023-04-08T09:01:41;73026.88;;;-145.80;34.59
6615;BME280;3343;42.896;23.912;2023-04-08T09:04:11;73014.84;;;-145.80;33.61
6615;BME280;3343;42.896;23.912;2023-04-08T09:06:39;73040.94;;;-145.80;33.63
6615;BME280;3343;42.896;23.912;2023-04-08T09:09:07;73010.84;;;-145.80;33.52
6615;BME280;3343;42.896;23.912;2023-04-08T09:11:38;73022.88;;;-145.80;33.07
6615;BME280;3343;42.896;23.912;2023-04-08T09:14:17;72962.72;;;-145.80;33.75
6615;BME280;3343;42.896;23.912;2023-04-08T09:16:44;72974.75;;;-145.80;34.15
6615;BME280;3343;42.896;23.912;2023-04-08T09:19:11;72984.78;;;-145.80;33.11
6615;BME280;3343;42.896;23.912;2023-04-08T09:21:38;72944.66;;;-145.80;34.56
6615;BME280;3343;42.896;23.912;2023-04-08T09:24:08;72954.69;;;-145.80;33.32
6615;BME280;3343;42.896;23.912;2023-04-08T09:26:36;72950.69;;;-145.80;33.85
6615;BME280;3343;42.896;23.912;2023-04-08T09:29:04;72934.63;;;-145.80;34.33
6615;BME280;3343;42.896;23.912;2023-04-08T09:31:32;72946.66;;;-145.80;33.98
6615;BME280;3343;42.896;23.912;2023-04-08T09:34:08;72980.75;;;-145.80;33.83
6615;BME280;3343;42.896;23.912;2023-04-08T09:36:35;72968.72;;;-145.80;34.33
6615;BME280;3343;42.896;23.912;2023-04-08T09:39:02;72988.78;;;-145.80;33.66
6615;BME280;3343;42.896;23.912;2023-04-08T09:41:34;72952.69;;;-145.80;33.53
6615;BME280;3343;42.896;23.912;2023-04-08T09:44:02;72960.69;;;-145.80;34.31
6615;BME280;3343;42.896;23.912;2023-04-08T09:46:32;72966.72;;;-145.80;34.04
6615;BME280;3343;42.896;23.912;2023-04-08T09:49:04;72976.75;;;-145.80;35.04
6615;BME280;3343;42.896;23.912;2023-04-08T09:51:35;73000.81;;;-145.80;35.32
6615;BME280;3343;42.896;23.912;2023-04-08T09:54:12;72994.81;;;-145.80;35.28
6615;BME280;3343;42.896;23.912;2023-04-08T09:56:45;73040.94;;;-145.80;35.48
6615;BME280;3343;42.896;23.912;2023-04-08T09:59:16;73075.03;;;-145.80;35.79
6615;BME280;3343;42.896;23.912;2023-04-08T10:01:52;73079.03;;;-145.80;36.25
6615;BME280;3343;42.896;23.912;2023-04-08T10:04:21;73060.97;;;-145.80;36.93
6615;BME280;3343;42.896;23.912;2023-04-08T10:07:05;73060.97;;;-145.80;36.99
6615;BME280;3343;42.896;23.912;2023-04-08T10:09:32;73093.06;;;-145.80;36.46
6615;BME280;3343;42.896;23.912;2023-04-08T10:12:03;73091.06;;;-145.80;37.28
6615;BME280;3343;42.896;23.912;2023-04-08T10:14:30;73121.16;;;-145.80;37.06
6615;BME280;3343;42.896;23.912;2023-04-08T10:17:25;73095.06;;;-145.80;36.49
6615;BME280;3343;42.896;23.912;2023-04-08T10:19:53;73105.09;;;-145.80;36.62
6615;BME280;3343;42.896;23.912;2023-04-08T10:22:45;73083.03;;;-145.80;37.55
6615;BME280;3343;42.896;23.912;2023-04-08T10:25:31;73079.03;;;-145.80;38.53
6615;BME280;3343;42.896;23.912;2023-04-08T10:28:00;73083.03;;;-145.80;37.24
6615;BME280;3343;42.896;23.912;2023-04-08T10:30:41;73065.00;;;-145.80;37.01
6615;BME280;3343;42.896;23.912;2023-04-08T10:33:12;73067.00;;;-145.80;39.29
6615;BME280;3343;42.896;23.912;2023-04-08T10:35:42;73073.00;;;-145.80;38.19
6615;BME280;3343;42.896;23.912;2023-04-08T10:38:12;73063.00;;;-145.80;37.72
6615;BME280;3343;42.896;23.912;2023-04-08T10:40:40;73085.03;;;-145.80;36.57
6615;BME280;3343;42.896;23.912;2023-04-08T10:43:09;73189.34;;;-145.80;36.54
6615;BME280;3343;42.896;23.912;2023-04-08T10:45:36;73189.34;;;-145.80;37.78
6615;BME280;3343;42.896;23.912;2023-04-08T10:48:14;73189.34;;;-145.80;39.08
6615;BME280;3343;42.896;23.912;2023-04-08T10:50:42;73193.34;;;-145.80;36.85
6615;BME280;3343;42.896;23.912;2023-04-08T10:53:10;73221.44;;;-145.80;37.71
6615;BME280;3343;42.896;23.912;2023-04-08T10:55:37;73311.69;;;-145.80;39.89
6615;BME280;3343;42.896;23.912;2023-04-08T10:58:05;73289.63;;;-145.80;40.59
6615;BME280;3343;42.896;23.912;2023-04-08T11:00:35;73271.56;;;-145.80;41.24
6615;BME280;3343;42.896;23.912;2023-04-08T11:03:03;73313.69;;;-145.80;43.64
6615;BME280;3343;42.896;23.912;2023-04-08T11:05:31;73349.78;;;-145.80;44.36
6615;BME280;3343;42.896;23.912;2023-04-08T11:07:58;73341.78;;;-145.80;38.86
6615;BME280;3343;42.896;23.912;2023-04-08T11:10:25;73309.69;;;-145.80;41.65
6615;BME280;3343;42.896;23.912;2023-04-08T11:12:54;73279.59;;;-145.80;43.23
6615;BME280;3343;42.896;23.912;2023-04-08T11:15:23;73259.53;;;-145.80;38.94
6615;BME280;3343;42.896;23.912;2023-04-08T11:17:53;73283.59;;;-145.80;38.00
6615;BME280;3343;42.896;23.912;2023-04-08T11:20:21;73273.56;;;-145.80;38.10
6615;BME280;3343;42.896;23.912;2023-04-08T11:22:49;73243.50;;;-145.80;36.73
6615;BME280;3343;42.896;23.912;2023-04-08T11:25:16;73253.53;;;-145.80;37.95
6615;BME280;3343;42.896;23.912;2023-04-08T11:27:43;73221.44;;;-145.80;37.06
6615;BME280;3343;42.896;23.912;2023-04-08T11:30:11;73239.47;;;-145.80;35.82
6615;BME280;3343;42.896;23.912;2023-04-08T11:32:38;73217.41;;;-145.80;36.03
6615;BME280;3343;42.896;23.912;2023-04-08T11:35:07;73193.34;;;-145.80;36.32
6615;BME280;3343;42.896;23.912;2023-04-08T11:37:37;73169.28;;;-145.80;35.38
6615;BME280;3343;42.896;23.912;2023-04-08T11:40:08;73197.38;;;-145.80;35.64
6615;BME280;3343;42.896;23.912;2023-04-08T11:42:36;73219.41;;;-145.80;36.28
6615;BME280;3343;42.896;23.912;2023-04-08T11:45:10;73147.22;;;-145.80;35.17
6615;BME280;3343;42.896;23.912;2023-04-08T11:47:37;73217.41;;;-145.80;36.29
6615;BME280;3343;42.896;23.912;2023-04-08T11:50:07;73255.53;;;-145.80;35.96
6615;BME280;3343;42.896;23.912;2023-04-08T11:52:41;73199.38;;;-145.80;35.23
6615;BME280;3343;42.896;23.912;2023-04-08T11:55:09;73189.34;;;-145.80;35.50
6615;BME280;3343;42.896;23.912;2023-04-08T11:57:37;73179.31;;;-145.80;36.89
6615;BME280;3343;42.896;23.912;2023-04-08T12:00:06;73187.34;;;-145.80;37.01
6615;BME280;3343;42.896;23.912;2023-04-08T12:02:34;73181.31;;;-145.80;36.09
6615;BME280;3343;42.896;23.912;2023-04-08T12:05:01;73253.53;;;-145.80;38.48
6615;BME280;3343;42.896;23.912;2023-04-08T12:07:29;73259.53;;;-145.80;36.82
6615;BME280;3343;42.896;23.912;2023-04-08T12:09:57;73259.53;;;-145.80;36.62
6615;BME280;3343;42.896;23.912;2023-04-08T12:12:23;73219.41;;;-145.80;36.20
6615;BME280;3343;42.896;23.912;2023-04-08T12:14:50;73269.56;;;-145.80;37.92
6615;BME280;3343;42.896;23.912;2023-04-08T12:17:17;73265.56;;;-145.80;37.63
6615;BME280;3343;42.896;23.912;2023-04-08T12:19:44;73287.63;;;-145.80;38.18
6615;BME280;3343;42.896;23.912;2023-04-08T12:22:11;73265.56;;;-145.80;38.44
6615;BME280;3343;42.896;23.912;2023-04-08T12:24:39;73265.56;;;-145.80;37.50
6615;BME280;3343;42.896;23.912;2023-04-08T12:27:06;73265.56;;;-145.80;37.72
6615;BME280;3343;42.896;23.912;2023-04-08T12:29:33;73229.44;;;-145.80;36.52
6615;BME280;3343;42.896;23.912;2023-04-08T12:32:00;73211.41;;;-145.80;37.15
6615;BME280;3343;42.896;23.912;2023-04-08T12:34:29;73217.41;;;-145.80;36.27
6615;BME280;3343;42.896;23.912;2023-04-08T12:36:55;73227.44;;;-145.80;37.38
6615;BME280;3343;42.896;23.912;2023-04-08T12:39:23;73169.28;;;-145.80;37.55
6615;BME280;3343;42.896;23.912;2023-04-08T12:41:51;73157.25;;;-145.80;36.54
6615;BME280;3343;42.896;23.912;2023-04-08T12:44:18;73171.28;;;-145.80;35.31
6615;BME280;3343;42.896;23.912;2023-04-08T12:46:45;73153.25;;;-145.80;35.50
6615;BME280;3343;42.896;23.912;2023-04-08T12:49:12;73151.22;;;-145.80;35.28
6615;BME280;3343;42.896;23.912;2023-04-08T12:51:39;73127.16;;;-145.80;35.24
6615;BME280;3343;42.896;23.912;2023-04-08T12:54:05;73101.09;;;-145.80;35.09
6615;BME280;3343;42.896;23.912;2023-04-08T12:56:33;73085.03;;;-145.80;34.69